Time,TemperatureF,DewpointF,PressureIn,WindDirection,WindDirectionDegrees,WindSpeedMPH,WindSpeedGustMPH,Humidity,HourlyPrecipIn,Conditions,Clouds,dailyrainin,SoftwareType,DateUTC
2013-02-09 00:00:00,23.1,15.4,29.72,West,271,0.0,19.0,72,0.00,,,0.00,Wunderground v.1.15,2013-02-09 07:00:00,
2013-02-09 00:05:00,22.8,15.4,29.73,West,271,0.0,19.0,73,0.00,,,0.00,Wunderground v.1.15,2013-02-09 07:05:00,
2013-02-09 00:15:00,22.8,15.8,29.72,West,271,1.0,3.0,74,0.00,,,0.00,Wunderground v.1.15,2013-02-09 07:15:00,
2013-02-09 00:20:00,23.1,15.7,29.72,West,271,2.0,2.0,73,0.00,,,0.00,Wunderground v.1.15,2013-02-09 07:20:00,
2013-02-09 00:25:00,23.2,15.5,29.72,West,271,2.0,2.0,72,0.00,,,0.00,Wunderground v.1.15,2013-02-09 07:25:00,
2013-02-09 00:35:00,22.9,15.5,29.72,West,271,1.0,3.0,73,0.00,,,0.00,Wunderground v.1.15,2013-02-09 07:35:00,
2013-02-09 00:40:00,22.7,15.3,29.72,West,271,1.0,1.0,73,0.00,,,0.00,Wunderground v.1.15,2013-02-09 07:40:00,
2013-02-09 00:45:00,22.7,15.7,29.72,West,271,1.0,3.0,74,0.00,,,0.00,Wunderground v.1.15,2013-02-09 07:45:00,
2013-02-09 00:50:00,22.3,15.3,29.72,West,271,1.0,3.0,74,0.00,,,0.00,Wunderground v.1.15,2013-02-09 07:50:00,
2013-02-09 01:00:00,21.9,15.5,29.70,West,275,2.0,3.0,76,0.00,,,0.00,Wunderground v.1.15,2013-02-09 08:00:00,
2013-02-09 01:05:00,22.0,15.3,29.72,West,275,3.0,3.0,75,0.00,,,0.00,Wunderground v.1.15,2013-02-09 08:05:00,
2013-02-09 01:15:00,22.6,15.9,29.71,West,275,2.0,3.0,75,0.00,,,0.00,Wunderground v.1.15,2013-02-09 08:15:00,
2013-02-09 01:20:00,22.7,16.0,29.70,West,275,2.0,3.0,75,0.00,,,0.00,Wunderground v.1.15,2013-02-09 08:20:00,
2013-02-09 01:25:00,22.4,15.4,29.70,West,275,2.0,3.0,74,0.00,,,0.00,Wunderground v.1.15,2013-02-09 08:25:00,
2013-02-09 01:30:00,22.4,15.7,29.70,West,275,2.0,2.0,75,0.00,,,0.00,Wunderground v.1.15,2013-02-09 08:30:00,
2013-02-09 01:40:00,21.8,15.1,29.70,West,275,0.0,3.0,75,0.00,,,0.00,Wunderground v.1.15,2013-02-09 08:40:00,
2013-02-09 01:45:00,21.3,14.9,29.70,West,275,0.0,3.0,76,0.00,,,0.00,Wunderground v.1.15,2013-02-09 08:45:00,
2013-02-09 01:50:00,20.9,14.5,29.70,West,275,1.0,3.0,76,0.00,,,0.00,Wunderground v.1.15,2013-02-09 08:50:00,
2013-02-09 02:00:00,20.7,15.2,29.70,West,275,1.0,1.0,79,0.00,,,0.00,Wunderground v.1.15,2013-02-09 09:00:00,
2013-02-09 02:05:00,20.7,15.2,29.70,West,275,0.0,3.0,79,0.00,,,0.00,Wunderground v.1.15,2013-02-09 09:05:00,
2013-02-09 02:10:00,20.5,15.0,29.70,West,275,1.0,1.0,79,0.00,,,0.00,Wunderground v.1.15,2013-02-09 09:10:00,
2013-02-09 02:20:00,20.7,15.5,29.69,West,275,0.0,3.0,80,0.00,,,0.00,Wunderground v.1.15,2013-02-09 09:20:00,
2013-02-09 02:25:00,21.2,16.0,29.69,West,275,0.0,3.0,80,0.00,,,0.00,Wunderground v.1.15,2013-02-09 09:25:00,
2013-02-09 02:30:00,22.5,17.3,29.69,West,277,2.0,6.0,80,0.00,,,0.00,Wunderground v.1.15,2013-02-09 09:30:00,
2013-02-09 02:35:00,25.0,17.9,29.68,West,277,4.0,6.0,74,0.00,,,0.00,Wunderground v.1.15,2013-02-09 09:35:00,
2013-02-09 02:45:00,26.1,18.0,29.69,West,277,4.0,5.0,71,0.00,,,0.00,Wunderground v.1.15,2013-02-09 09:45:00,
2013-02-09 02:50:00,26.2,17.7,29.69,West,278,5.0,5.0,70,0.00,,,0.00,Wunderground v.1.15,2013-02-09 09:50:00,
2013-02-09 02:55:00,26.3,18.2,29.68,West,277,5.0,5.0,71,0.00,,,0.00,Wunderground v.1.15,2013-02-09 09:55:00,
2013-02-09 03:05:00,26.5,18.7,29.68,WNW,291,5.0,9.0,72,0.00,,,0.00,Wunderground v.1.15,2013-02-09 10:05:00,
2013-02-09 03:10:00,26.8,19.0,29.69,West,275,6.0,10.0,72,0.00,,,0.00,Wunderground v.1.15,2013-02-09 10:10:00,
2013-02-09 03:15:00,26.8,19.0,29.68,WNW,284,7.0,10.0,72,0.00,,,0.00,Wunderground v.1.15,2013-02-09 10:15:00,
2013-02-09 03:25:00,26.7,19.5,29.68,West,281,5.0,6.0,74,0.00,,,0.00,Wunderground v.1.15,2013-02-09 10:25:00,
2013-02-09 03:30:00,26.7,19.2,29.67,West,279,5.0,5.0,73,0.00,,,0.00,Wunderground v.1.15,2013-02-09 10:30:00,
2013-02-09 03:35:00,26.7,19.2,29.68,West,280,5.0,5.0,73,0.00,,,0.00,Wunderground v.1.15,2013-02-09 10:35:00,
2013-02-09 03:45:00,26.9,19.4,29.67,WNW,283,5.0,6.0,73,0.00,,,0.00,Wunderground v.1.15,2013-02-09 10:45:00,
2013-02-09 03:50:00,27.0,19.2,29.68,West,279,7.0,7.0,72,0.00,,,0.00,Wunderground v.1.15,2013-02-09 10:50:00,
2013-02-09 03:55:00,26.8,19.3,29.68,West,279,7.0,10.0,73,0.00,,,0.00,Wunderground v.1.15,2013-02-09 10:55:00,
2013-02-09 04:00:00,26.6,19.1,29.68,West,276,8.0,8.0,73,0.00,,,0.00,Wunderground v.1.15,2013-02-09 11:00:00,
2013-02-09 04:10:00,26.1,19.6,29.68,West,277,7.0,7.0,76,0.00,,,0.00,Wunderground v.1.15,2013-02-09 11:10:00,
2013-02-09 04:15:00,26.0,19.5,29.69,West,277,7.0,9.0,76,0.00,,,0.00,Wunderground v.1.15,2013-02-09 11:15:00,
2013-02-09 04:20:00,26.0,19.8,29.68,West,271,7.0,7.0,77,0.00,,,0.00,Wunderground v.1.15,2013-02-09 11:20:00,
2013-02-09 04:25:00,25.6,20.0,29.68,WNW,286,7.0,9.0,79,0.00,,,0.00,Wunderground v.1.15,2013-02-09 11:25:00,
2013-02-09 04:35:00,25.0,20.3,29.68,WNW,296,4.0,6.0,82,0.00,,,0.00,Wunderground v.1.15,2013-02-09 11:35:00,
2013-02-09 04:40:00,24.9,20.5,29.68,WNW,295,3.0,5.0,83,0.00,,,0.00,Wunderground v.1.15,2013-02-09 11:40:00,
2013-02-09 04:45:00,24.6,20.5,29.68,WNW,295,4.0,5.0,84,0.00,,,0.00,Wunderground v.1.15,2013-02-09 11:45:00,
2013-02-09 04:55:00,24.3,20.7,29.68,WNW,295,4.0,5.0,86,0.00,,,0.00,Wunderground v.1.15,2013-02-09 11:55:00,
2013-02-09 05:00:00,24.3,21.0,29.68,WNW,295,3.0,3.0,87,0.00,,,0.00,Wunderground v.1.15,2013-02-09 12:00:00,
2013-02-09 05:05:00,24.3,21.0,29.67,WNW,295,2.0,3.0,87,0.00,,,0.00,Wunderground v.1.15,2013-02-09 12:05:00,
2013-02-09 05:15:00,24.1,20.8,29.67,WNW,295,0.0,3.0,87,0.00,,,0.00,Wunderground v.1.15,2013-02-09 12:15:00,
2013-02-09 05:20:00,24.1,21.1,29.67,WNW,295,1.0,3.0,88,0.00,,,0.00,Wunderground v.1.15,2013-02-09 12:20:00,
2013-02-09 05:25:00,24.0,21.0,29.67,WNW,295,1.0,3.0,88,0.00,,,0.00,Wunderground v.1.15,2013-02-09 12:25:00,
2013-02-09 05:35:00,23.9,21.1,29.67,WNW,295,0.0,3.0,89,0.00,,,0.00,Wunderground v.1.15,2013-02-09 12:35:00,
2013-02-09 05:40:00,23.9,21.1,29.67,WNW,295,0.0,3.0,89,0.00,,,0.00,Wunderground v.1.15,2013-02-09 12:40:00,
2013-02-09 05:45:00,23.9,21.1,29.68,WNW,295,0.0,3.0,89,0.00,,,0.00,Wunderground v.1.15,2013-02-09 12:45:00,
2013-02-09 05:50:00,23.9,21.1,29.67,WNW,295,1.0,3.0,89,0.00,,,0.00,Wunderground v.1.15,2013-02-09 12:50:00,
2013-02-09 06:00:00,23.8,21.0,29.67,WNW,295,1.0,1.0,89,0.00,,,0.00,Wunderground v.1.15,2013-02-09 13:00:00,
2013-02-09 06:05:00,23.8,21.0,29.67,WNW,295,1.0,3.0,89,0.00,,,0.00,Wunderground v.1.15,2013-02-09 13:05:00,
2013-02-09 06:10:00,23.8,21.0,29.66,WNW,295,1.0,3.0,89,0.00,,,0.00,Wunderground v.1.15,2013-02-09 13:10:00,
2013-02-09 06:20:00,23.8,21.3,29.67,WNW,295,2.0,2.0,90,0.00,,,0.00,Wunderground v.1.15,2013-02-09 13:20:00,
2013-02-09 06:25:00,23.7,21.2,29.66,WNW,295,1.0,3.0,90,0.00,,,0.00,Wunderground v.1.15,2013-02-09 13:25:00,
2013-02-09 06:30:00,23.7,21.2,29.66,WNW,295,1.0,1.0,90,0.00,,,0.00,Wunderground v.1.15,2013-02-09 13:30:00,
2013-02-09 06:40:00,23.6,21.1,29.66,WNW,295,0.0,3.0,90,0.00,,,0.00,Wunderground v.1.15,2013-02-09 13:40:00,
2013-02-09 06:45:00,23.4,20.9,29.66,WNW,295,0.0,3.0,90,0.00,,,0.00,Wunderground v.1.15,2013-02-09 13:45:00,
2013-02-09 06:50:00,23.1,20.6,29.65,WNW,295,0.0,3.0,90,0.00,,,0.00,Wunderground v.1.15,2013-02-09 13:50:00,
2013-02-09 06:55:00,22.8,20.0,29.65,WNW,295,0.0,3.0,89,0.00,,,0.00,Wunderground v.1.15,2013-02-09 13:55:00,
2013-02-09 07:05:00,21.7,19.0,29.66,WNW,295,0.0,3.0,89,0.00,,,0.00,Wunderground v.1.15,2013-02-09 14:05:00,
2013-02-09 07:10:00,21.5,18.8,29.66,WNW,295,0.0,3.0,89,0.00,,,0.00,Wunderground v.1.15,2013-02-09 14:10:00,
2013-02-09 07:15:00,21.5,18.8,29.66,WNW,295,0.0,3.0,89,0.00,,,0.00,Wunderground v.1.15,2013-02-09 14:15:00,
2013-02-09 07:25:00,22.3,19.8,29.66,WNW,295,0.0,3.0,90,0.00,,,0.00,Wunderground v.1.15,2013-02-09 14:25:00,
2013-02-09 07:30:00,22.6,20.1,29.66,WNW,295,0.0,3.0,90,0.00,,,0.00,Wunderground v.1.15,2013-02-09 14:30:00,
2013-02-09 07:35:00,22.7,20.2,29.66,WNW,295,0.0,3.0,90,0.00,,,0.00,Wunderground v.1.15,2013-02-09 14:35:00,
2013-02-09 07:40:00,22.9,20.4,29.66,WNW,295,0.0,3.0,90,0.00,,,0.00,Wunderground v.1.15,2013-02-09 14:40:00,
2013-02-09 07:50:00,23.1,20.6,29.66,WNW,295,0.0,3.0,90,0.00,,,0.00,Wunderground v.1.15,2013-02-09 14:50:00,
2013-02-09 07:55:00,23.1,20.6,29.66,WNW,295,0.0,3.0,90,0.00,,,0.00,Wunderground v.1.15,2013-02-09 14:55:00,
2013-02-09 08:00:00,23.2,20.7,29.66,WNW,295,0.0,3.0,90,0.00,,,0.00,Wunderground v.1.15,2013-02-09 15:00:00,
2013-02-09 08:10:00,23.6,21.1,29.67,WNW,295,0.0,3.0,90,0.00,,,0.00,Wunderground v.1.15,2013-02-09 15:10:00,
2013-02-09 08:15:00,23.9,21.4,29.67,WNW,295,1.0,3.0,90,0.00,,,0.00,Wunderground v.1.15,2013-02-09 15:15:00,
2013-02-09 08:20:00,24.2,22.0,29.67,West,269,2.0,2.0,91,0.00,,,0.00,Wunderground v.1.15,2013-02-09 15:20:00,
2013-02-09 08:30:00,24.3,21.8,29.67,WNW,288,3.0,3.0,90,0.00,,,0.00,Wunderground v.1.15,2013-02-09 15:30:00,
2013-02-09 08:35:00,24.2,21.7,29.67,WNW,287,3.0,5.0,90,0.00,,,0.00,Wunderground v.1.15,2013-02-09 15:35:00,
2013-02-09 08:40:00,24.2,21.7,29.67,WNW,283,4.0,4.0,90,0.00,,,0.00,Wunderground v.1.15,2013-02-09 15:40:00,
2013-02-09 08:45:00,24.2,21.7,29.67,WNW,300,4.0,4.0,90,0.00,,,0.00,Wunderground v.1.15,2013-02-09 15:45:00,
2013-02-09 08:55:00,24.4,21.6,29.67,WNW,299,2.0,3.0,89,0.00,,,0.00,Wunderground v.1.15,2013-02-09 15:55:00,
2013-02-09 09:00:00,24.5,21.7,29.67,WNW,300,1.0,1.0,89,0.00,,,0.00,Wunderground v.1.15,2013-02-09 16:00:00,
2013-02-09 09:10:00,25.0,22.2,29.67,WNW,300,1.0,1.0,89,0.00,,,0.00,Wunderground v.1.15,2013-02-09 16:10:00,
2013-02-09 09:15:00,25.3,22.2,29.67,WNW,300,0.0,3.0,88,0.00,,,0.00,Wunderground v.1.15,2013-02-09 16:15:00,
2013-02-09 09:20:00,25.7,22.4,29.65,WNW,300,0.0,3.0,87,0.00,,,0.00,Wunderground v.1.15,2013-02-09 16:20:00,
2013-02-09 09:25:00,26.0,22.4,29.66,WNW,300,1.0,3.0,86,0.00,,,0.00,Wunderground v.1.15,2013-02-09 16:25:00,
2013-02-09 09:35:00,26.2,22.0,29.66,WNW,300,1.0,3.0,84,0.00,,,0.00,Wunderground v.1.15,2013-02-09 16:35:00,
2013-02-09 09:40:00,26.5,22.3,29.66,WNW,300,1.0,3.0,84,0.00,,,0.00,Wunderground v.1.15,2013-02-09 16:40:00,
2013-02-09 09:45:00,26.5,21.7,29.66,WNW,300,2.0,3.0,82,0.00,,,0.00,Wunderground v.1.15,2013-02-09 16:45:00,
2013-02-09 09:55:00,26.7,21.7,29.66,WNW,300,2.0,3.0,81,0.00,,,0.00,Wunderground v.1.15,2013-02-09 16:55:00,
2013-02-09 10:00:00,27.1,22.3,29.66,WNW,300,1.0,1.0,82,0.00,,,0.01,Wunderground v.1.15,2013-02-09 17:00:00,
2013-02-09 10:06:00,27.1,21.5,29.66,West,261,2.0,2.0,79,0.00,,,0.01,Wunderground v.1.15,2013-02-09 17:06:00,
2013-02-09 10:15:00,27.0,21.9,29.66,West,272,3.0,5.0,81,0.05,,,0.02,Wunderground v.1.15,2013-02-09 17:15:00,
2013-02-09 10:20:00,26.9,21.8,29.65,WNW,288,3.0,3.0,81,0.05,,,0.02,Wunderground v.1.15,2013-02-09 17:20:00,
2013-02-09 10:30:00,26.1,20.2,29.66,West,269,4.0,4.0,78,0.04,,,0.03,Wunderground v.1.15,2013-02-09 17:30:00,
2013-02-09 10:35:00,26.4,20.5,29.66,West,276,3.0,4.0,78,0.04,,,0.03,Wunderground v.1.15,2013-02-09 17:35:00,
2013-02-09 10:40:00,26.7,20.8,29.66,WNW,282,2.0,2.0,78,0.04,,,0.03,Wunderground v.1.15,2013-02-09 17:40:00,
2013-02-09 10:45:00,27.0,21.1,29.66,WNW,286,2.0,3.0,78,0.00,,,0.03,Wunderground v.1.15,2013-02-09 17:45:00,
2013-02-09 10:55:00,26.9,20.7,29.67,WNW,288,3.0,4.0,77,0.00,,,0.04,Wunderground v.1.15,2013-02-09 17:55:00,
2013-02-09 11:00:00,26.9,21.0,29.66,WNW,289,3.0,3.0,78,0.00,,,0.04,Wunderground v.1.15,2013-02-09 18:00:00,
2013-02-09 11:05:00,26.9,21.0,29.67,WNW,295,2.0,4.0,78,0.05,,,0.05,Wunderground v.1.15,2013-02-09 18:05:00,
2013-02-09 11:10:00,26.7,20.5,29.66,WNW,298,3.0,4.0,77,0.05,,,0.05,Wunderground v.1.15,2013-02-09 18:10:00,
2013-02-09 11:20:00,26.5,20.6,29.66,WNW,298,3.0,3.0,78,0.00,,,0.05,Wunderground v.1.15,2013-02-09 18:20:00,
2013-02-09 11:25:00,26.3,20.7,29.67,WNW,297,3.0,5.0,79,0.00,,,0.05,Wunderground v.1.15,2013-02-09 18:25:00,
2013-02-09 11:35:00,26.3,21.0,29.67,WNW,288,4.0,5.0,80,0.00,,,0.06,Wunderground v.1.15,2013-02-09 18:35:00,
2013-02-09 11:40:00,26.3,20.7,29.67,West,280,4.0,4.0,79,0.00,,,0.06,Wunderground v.1.15,2013-02-09 18:40:00,
2013-02-09 11:45:00,26.3,20.7,29.67,WNW,299,4.0,5.0,79,0.00,,,0.06,Wunderground v.1.15,2013-02-09 18:45:00,
2013-02-09 11:50:00,26.3,21.0,29.67,West,268,4.0,4.0,80,0.00,,,0.06,Wunderground v.1.15,2013-02-09 18:50:00,
2013-02-09 12:00:00,26.2,20.0,29.67,West,275,4.0,4.0,77,0.00,,,0.06,Wunderground v.1.15,2013-02-09 19:00:00,
2013-02-09 12:05:00,26.3,20.1,29.66,WNW,283,4.0,5.0,77,0.00,,,0.07,Wunderground v.1.15,2013-02-09 19:05:00,
2013-02-09 12:15:00,26.9,20.3,29.65,West,281,4.0,6.0,76,0.00,,,0.07,Wunderground v.1.15,2013-02-09 19:15:00,
2013-02-09 12:20:00,26.8,20.6,29.65,WNW,286,4.0,7.0,77,0.00,,,0.07,Wunderground v.1.15,2013-02-09 19:20:00,
2013-02-09 12:25:00,26.5,20.6,29.65,NW,314,6.0,9.0,78,0.00,,,0.07,Wunderground v.1.15,2013-02-09 19:25:00,
2013-02-09 12:30:00,25.9,20.6,29.65,NW,306,5.0,5.0,80,0.00,,,0.07,Wunderground v.1.15,2013-02-09 19:30:00,
2013-02-09 12:40:00,25.6,21.2,29.66,West,280,3.0,7.0,83,0.00,,,0.07,Wunderground v.1.15,2013-02-09 19:40:00,
2013-02-09 12:45:00,25.5,21.1,29.65,WNW,288,4.0,7.0,83,0.00,,,0.08,Wunderground v.1.15,2013-02-09 19:45:00,
2013-02-09 12:50:00,25.8,21.6,29.65,West,277,4.0,4.0,84,0.00,,,0.08,Wunderground v.1.15,2013-02-09 19:50:00,
2013-02-09 12:55:00,25.6,21.4,29.65,WSW,258,5.0,5.0,84,0.00,,,0.08,Wunderground v.1.15,2013-02-09 19:55:00,
2013-02-09 13:05:00,25.2,20.8,29.65,WSW,250,6.0,9.0,83,0.00,,,0.08,Wunderground v.1.15,2013-02-09 20:05:00,
2013-02-09 13:10:00,25.2,21.0,29.64,WSW,257,6.0,6.0,84,0.00,,,0.08,Wunderground v.1.15,2013-02-09 20:10:00,
2013-02-09 13:15:00,25.6,21.4,29.65,WSW,257,5.0,6.0,84,0.00,,,0.09,Wunderground v.1.15,2013-02-09 20:15:00,
2013-02-09 13:25:00,26.3,21.8,29.65,West,275,3.0,4.0,83,0.00,,,0.09,Wunderground v.1.15,2013-02-09 20:25:00,
2013-02-09 13:30:00,26.7,21.7,29.65,West,275,1.0,4.0,81,0.00,,,0.09,Wunderground v.1.15,2013-02-09 20:30:00,
2013-02-09 13:40:00,26.7,20.8,29.65,West,275,2.0,4.0,78,0.00,,,0.09,Wunderground v.1.15,2013-02-09 20:40:00,
2013-02-09 13:45:00,26.5,20.6,29.65,West,276,3.0,4.0,78,0.00,,,0.09,Wunderground v.1.15,2013-02-09 20:45:00,
2013-02-09 13:50:00,26.3,20.4,29.65,West,276,3.0,3.0,78,0.00,,,0.09,Wunderground v.1.15,2013-02-09 20:50:00,
2013-02-09 14:00:00,24.0,18.7,29.66,WSW,253,8.0,13.0,80,0.00,,,0.10,Wunderground v.1.15,2013-02-09 21:00:00,
2013-02-09 14:05:00,22.4,18.3,29.67,WNW,284,12.0,13.0,84,0.00,,,0.10,Wunderground v.1.15,2013-02-09 21:05:00,
2013-02-09 14:10:00,21.9,18.4,29.67,WNW,294,10.0,10.0,86,0.00,,,0.10,Wunderground v.1.15,2013-02-09 21:10:00,
2013-02-09 14:20:00,21.6,18.6,29.68,WSW,254,8.0,8.0,88,0.00,,,0.10,Wunderground v.1.15,2013-02-09 21:20:00,
2013-02-09 14:25:00,21.6,18.6,29.68,WSW,257,6.0,8.0,88,0.00,,,0.10,Wunderground v.1.15,2013-02-09 21:25:00,
2013-02-09 14:30:00,21.7,19.0,29.69,West,272,5.0,5.0,89,0.00,,,0.10,Wunderground v.1.15,2013-02-09 21:30:00,
2013-02-09 14:40:00,21.9,19.2,29.69,WSW,254,5.0,5.0,89,0.00,,,0.10,Wunderground v.1.15,2013-02-09 21:40:00,
2013-02-09 14:45:00,22.0,19.3,29.70,WNW,297,5.0,6.0,89,0.00,,,0.10,Wunderground v.1.15,2013-02-09 21:45:00,
2013-02-09 14:50:00,21.8,18.8,29.70,WSW,242,6.0,6.0,88,0.00,,,0.10,Wunderground v.1.15,2013-02-09 21:50:00,
2013-02-09 15:00:00,21.6,18.3,29.70,WSW,252,4.0,6.0,87,0.00,,,0.10,Wunderground v.1.15,2013-02-09 22:00:00,
2013-02-09 15:05:00,21.6,18.3,29.71,WSW,253,3.0,6.0,87,0.00,,,0.10,Wunderground v.1.15,2013-02-09 22:05:00,
2013-02-09 15:10:00,21.7,18.4,29.71,West,262,3.0,3.0,87,0.00,,,0.10,Wunderground v.1.15,2013-02-09 22:10:00,
2013-02-09 15:20:00,22.4,19.4,29.71,West,261,1.0,1.0,88,0.00,,,0.10,Wunderground v.1.15,2013-02-09 22:20:00,
2013-02-09 15:25:00,22.6,19.3,29.71,East,99,1.0,5.0,87,0.00,,,0.10,Wunderground v.1.15,2013-02-09 22:25:00,
2013-02-09 15:30:00,22.2,18.9,29.72,East,96,3.0,4.0,87,0.00,,,0.10,Wunderground v.1.15,2013-02-09 22:30:00,
2013-02-09 15:40:00,21.8,18.8,29.72,East,98,3.0,4.0,88,0.00,,,0.10,Wunderground v.1.15,2013-02-09 22:40:00,
2013-02-09 15:45:00,21.8,18.8,29.72,East,98,3.0,4.0,88,0.00,,,0.10,Wunderground v.1.15,2013-02-09 22:45:00,
2013-02-09 15:50:00,21.9,18.9,29.73,East,98,2.0,2.0,88,0.00,,,0.10,Wunderground v.1.15,2013-02-09 22:50:00,
2013-02-09 16:00:00,22.2,19.2,29.73,East,98,0.0,4.0,88,0.00,,,0.10,Wunderground v.1.15,2013-02-09 23:00:00,
2013-02-09 16:05:00,22.4,19.1,29.74,East,98,0.0,4.0,87,0.00,,,0.10,Wunderground v.1.15,2013-02-09 23:05:00,
2013-02-09 16:10:00,22.6,19.6,29.74,East,98,0.0,4.0,88,0.00,,,0.10,Wunderground v.1.15,2013-02-09 23:10:00,
2013-02-09 16:15:00,22.9,19.9,29.74,East,98,0.0,4.0,88,0.00,,,0.10,Wunderground v.1.15,2013-02-09 23:15:00,
2013-02-09 16:25:00,23.3,20.0,29.74,East,98,0.0,4.0,87,0.00,,,0.10,Wunderground v.1.15,2013-02-09 23:25:00,
2013-02-09 16:30:00,23.3,20.0,29.74,East,98,0.0,4.0,87,0.00,,,0.10,Wunderground v.1.15,2013-02-09 23:30:00,
2013-02-09 16:35:00,23.1,19.8,29.75,East,98,0.0,4.0,87,0.00,,,0.10,Wunderground v.1.15,2013-02-09 23:35:00,
2013-02-09 16:45:00,22.9,19.3,29.75,East,98,0.0,4.0,86,0.00,,,0.10,Wunderground v.1.15,2013-02-09 23:45:00,
2013-02-09 16:50:00,22.7,19.1,29.76,East,98,0.0,4.0,86,0.00,,,0.10,Wunderground v.1.15,2013-02-09 23:50:00,
2013-02-09 16:55:00,22.5,19.2,29.76,East,98,0.0,4.0,87,0.00,,,0.10,Wunderground v.1.15,2013-02-09 23:55:00,
2013-02-09 17:05:00,22.2,18.9,29.76,East,98,0.0,4.0,87,0.00,,,0.10,Wunderground v.1.15,2013-02-10 00:05:00,
2013-02-09 17:10:00,22.1,18.8,29.76,East,98,0.0,4.0,87,0.00,,,0.10,Wunderground v.1.15,2013-02-10 00:10:00,
2013-02-09 17:15:00,21.9,18.9,29.76,East,98,0.0,4.0,88,0.00,,,0.10,Wunderground v.1.15,2013-02-10 00:15:00,
2013-02-09 17:25:00,21.6,18.6,29.77,East,98,1.0,4.0,88,0.00,,,0.10,Wunderground v.1.15,2013-02-10 00:25:00,
2013-02-09 17:30:00,21.5,18.5,29.77,East,98,0.0,4.0,88,0.00,,,0.10,Wunderground v.1.15,2013-02-10 00:30:00,
2013-02-09 17:35:00,21.5,18.5,29.77,East,98,0.0,4.0,88,0.00,,,0.10,Wunderground v.1.15,2013-02-10 00:35:00,
2013-02-09 17:45:00,21.4,18.7,29.78,East,98,0.0,4.0,89,0.00,,,0.10,Wunderground v.1.15,2013-02-10 00:45:00,
2013-02-09 17:50:00,21.3,18.6,29.79,East,98,0.0,4.0,89,0.00,,,0.10,Wunderground v.1.15,2013-02-10 00:50:00,
2013-02-09 17:55:00,21.3,18.6,29.79,East,98,0.0,4.0,89,0.00,,,0.10,Wunderground v.1.15,2013-02-10 00:55:00,
2013-02-09 18:05:00,21.1,18.4,29.79,East,98,1.0,4.0,89,0.00,,,0.10,Wunderground v.1.15,2013-02-10 01:05:00,
2013-02-09 18:10:00,20.9,18.2,29.79,East,98,1.0,1.0,89,0.00,,,0.10,Wunderground v.1.15,2013-02-10 01:10:00,
2013-02-09 18:15:00,20.9,18.2,29.80,East,98,0.0,4.0,89,0.00,,,0.10,Wunderground v.1.15,2013-02-10 01:15:00,
2013-02-09 18:25:00,20.8,18.1,29.80,East,98,0.0,4.0,89,0.00,,,0.10,Wunderground v.1.15,2013-02-10 01:25:00,
2013-02-09 18:30:00,20.7,18.0,29.80,East,98,0.0,4.0,89,0.00,,,0.10,Wunderground v.1.15,2013-02-10 01:30:00,
2013-02-09 18:35:00,20.7,18.0,29.80,East,98,0.0,4.0,89,0.00,,,0.10,Wunderground v.1.15,2013-02-10 01:35:00,
2013-02-09 18:45:00,20.7,18.2,29.81,East,98,0.0,4.0,90,0.00,,,0.10,Wunderground v.1.15,2013-02-10 01:45:00,
2013-02-09 18:50:00,20.6,18.1,29.81,East,98,0.0,4.0,90,0.00,,,0.10,Wunderground v.1.15,2013-02-10 01:50:00,
2013-02-09 19:00:00,20.7,18.2,29.83,East,98,0.0,4.0,90,0.00,,,0.10,Wunderground v.1.15,2013-02-10 02:00:00,
2013-02-09 19:05:00,20.7,18.2,29.82,East,98,0.0,4.0,90,0.00,,,0.10,Wunderground v.1.15,2013-02-10 02:05:00,
2013-02-09 19:10:00,20.9,18.4,29.83,East,98,1.0,4.0,90,0.00,,,0.10,Wunderground v.1.15,2013-02-10 02:10:00,
2013-02-09 19:20:00,21.1,18.6,29.83,East,98,3.0,5.0,90,0.00,,,0.10,Wunderground v.1.15,2013-02-10 02:20:00,
2013-02-09 19:25:00,21.2,18.7,29.83,West,275,3.0,5.0,90,0.00,,,0.10,Wunderground v.1.15,2013-02-10 02:25:00,
2013-02-09 19:35:00,21.3,18.8,29.85,WNW,295,3.0,4.0,90,0.00,,,0.10,Wunderground v.1.15,2013-02-10 02:35:00,
2013-02-09 19:40:00,21.4,18.9,29.85,WNW,291,4.0,4.0,90,0.00,,,0.10,Wunderground v.1.15,2013-02-10 02:40:00,
2013-02-09 19:45:00,21.5,19.0,29.85,West,281,4.0,6.0,90,0.00,,,0.10,Wunderground v.1.15,2013-02-10 02:45:00,
2013-02-09 19:55:00,21.6,19.1,29.86,NW,309,4.0,5.0,90,0.00,,,0.10,Wunderground v.1.15,2013-02-10 02:55:00,
2013-02-09 20:00:00,21.7,19.5,29.86,NW,304,3.0,3.0,91,0.00,,,0.10,Wunderground v.1.15,2013-02-10 03:00:00,
2013-02-09 20:05:00,21.8,19.6,29.86,NNW,342,3.0,4.0,91,0.00,,,0.10,Wunderground v.1.15,2013-02-10 03:05:00,
2013-02-09 20:15:00,22.0,19.8,29.87,NW,304,5.0,5.0,91,0.00,,,0.10,Wunderground v.1.15,2013-02-10 03:15:00,
2013-02-09 20:20:00,22.1,19.9,29.87,NW,304,5.0,5.0,91,0.00,,,0.10,Wunderground v.1.15,2013-02-10 03:20:00,
2013-02-09 20:25:00,22.2,20.0,29.87,WNW,289,5.0,6.0,91,0.00,,,0.10,Wunderground v.1.15,2013-02-10 03:25:00,
2013-02-09 20:35:00,22.5,20.3,29.87,WNW,287,5.0,7.0,91,0.00,,,0.10,Wunderground v.1.15,2013-02-10 03:35:00,
2013-02-09 20:40:00,22.5,20.3,29.88,WNW,288,5.0,5.0,91,0.00,,,0.10,Wunderground v.1.15,2013-02-10 03:40:00,
2013-02-09 20:45:00,22.6,20.4,29.88,WNW,292,5.0,5.0,91,0.00,,,0.10,Wunderground v.1.15,2013-02-10 03:45:00,
2013-02-09 20:55:00,22.6,20.4,29.88,WNW,287,6.0,6.0,91,0.00,,,0.10,Wunderground v.1.15,2013-02-10 03:55:00,
2013-02-09 21:00:00,22.6,20.4,29.88,WNW,303,5.0,5.0,91,0.00,,,0.10,Wunderground v.1.15,2013-02-10 04:00:00,
2013-02-09 21:05:00,22.5,20.3,29.89,WNW,300,4.0,5.0,91,0.00,,,0.10,Wunderground v.1.15,2013-02-10 04:05:00,
2013-02-09 21:15:00,22.4,20.2,29.89,West,279,5.0,5.0,91,0.00,,,0.10,Wunderground v.1.15,2013-02-10 04:15:00,
2013-02-09 21:20:00,22.4,20.2,29.90,WNW,285,4.0,4.0,91,0.00,,,0.10,Wunderground v.1.15,2013-02-10 04:20:00,
2013-02-09 21:25:00,22.4,20.2,29.90,WNW,286,4.0,4.0,91,0.00,,,0.10,Wunderground v.1.15,2013-02-10 04:25:00,
2013-02-09 21:35:00,22.4,20.2,29.90,WNW,290,4.0,4.0,91,0.00,,,0.10,Wunderground v.1.15,2013-02-10 04:35:00,
2013-02-09 21:40:00,22.4,20.2,29.90,WNW,288,3.0,4.0,91,0.00,,,0.10,Wunderground v.1.15,2013-02-10 04:40:00,
2013-02-09 21:45:00,22.4,20.2,29.90,NW,321,4.0,4.0,91,0.00,,,0.10,Wunderground v.1.15,2013-02-10 04:45:00,
2013-02-09 21:55:00,22.4,20.2,29.91,West,271,3.0,7.0,91,0.00,,,0.10,Wunderground v.1.15,2013-02-10 04:55:00,
2013-02-09 22:00:00,22.4,20.2,29.91,WNW,302,4.0,4.0,91,0.00,,,0.10,Wunderground v.1.15,2013-02-10 05:00:00,
2013-02-09 22:05:00,22.4,20.2,29.92,WNW,300,4.0,4.0,91,0.00,,,0.10,Wunderground v.1.15,2013-02-10 05:05:00,
2013-02-09 22:15:00,22.3,20.1,29.92,WNW,298,3.0,4.0,91,0.00,,,0.10,Wunderground v.1.15,2013-02-10 05:15:00,
2013-02-09 22:20:00,22.2,20.0,29.92,WNW,295,3.0,3.0,91,0.00,,,0.10,Wunderground v.1.15,2013-02-10 05:20:00,
2013-02-09 22:25:00,22.2,20.0,29.92,WNW,295,2.0,4.0,91,0.00,,,0.10,Wunderground v.1.15,2013-02-10 05:25:00,
2013-02-09 22:30:00,22.1,19.9,29.92,WNW,296,2.0,4.0,91,0.00,,,0.10,Wunderground v.1.15,2013-02-10 05:30:00,
2013-02-09 22:35:00,22.1,19.9,29.92,West,277,3.0,4.0,91,0.00,,,0.10,Wunderground v.1.15,2013-02-10 05:35:00,
2013-02-09 22:40:00,22.0,19.8,29.92,WNW,298,3.0,5.0,91,0.00,,,0.10,Wunderground v.1.15,2013-02-10 05:40:00,
2013-02-09 22:45:00,21.9,19.7,29.92,WNW,295,4.0,5.0,91,0.00,,,0.10,Wunderground v.1.15,2013-02-10 05:45:00,
2013-02-09 22:50:00,21.9,19.7,29.92,WNW,296,3.0,4.0,91,0.00,,,0.10,Wunderground v.1.15,2013-02-10 05:50:00,
2013-02-09 23:00:00,21.8,19.6,29.92,WNW,295,2.0,2.0,91,0.00,,,0.10,Wunderground v.1.15,2013-02-10 06:00:00,
2013-02-09 23:05:00,21.8,19.6,29.93,WNW,295,2.0,4.0,91,0.00,,,0.10,Wunderground v.1.15,2013-02-10 06:05:00,
2013-02-09 23:10:00,21.8,19.6,29.93,WNW,296,2.0,4.0,91,0.00,,,0.10,Wunderground v.1.15,2013-02-10 06:10:00,
2013-02-09 23:20:00,21.7,19.5,29.93,WNW,295,1.0,1.0,91,0.00,,,0.10,Wunderground v.1.15,2013-02-10 06:20:00,
2013-02-09 23:25:00,21.7,19.5,29.93,WNW,296,1.0,3.0,91,0.00,,,0.10,Wunderground v.1.15,2013-02-10 06:25:00,
2013-02-09 23:30:00,21.6,19.4,29.94,WNW,296,2.0,5.0,91,0.00,,,0.10,Wunderground v.1.15,2013-02-10 06:30:00,
2013-02-09 23:35:00,21.6,19.4,29.94,WNW,290,3.0,5.0,91,0.00,,,0.10,Wunderground v.1.15,2013-02-10 06:35:00,
2013-02-09 23:45:00,21.6,19.4,29.94,WNW,290,3.0,4.0,91,0.00,,,0.10,Wunderground v.1.15,2013-02-10 06:45:00,
2013-02-09 23:50:00,21.5,19.3,29.95,WNW,291,3.0,4.0,91,0.00,,,0.10,Wunderground v.1.15,2013-02-10 06:50:00,
2013-02-09 23:55:00,21.4,19.2,29.95,WNW,291,3.0,4.0,91,0.00,,,0.10,Wunderground v.1.15,2013-02-10 06:55:00,